Reverie TN, Arkansas
Current Conditions -  °F | °C
As of 4:50 PM on Thursday 23 Oct 2014 (Local Time) from KNQA Reporting Station
Overcast Overcast  
Wind Chill: 61°   Ceiling: 18000
Heat Index: 61°   Visibility: 10mi
Dew Point: 46°   Wind: 7mph
Humidity: 59%   Direction: 300°WNW
Pressure: 30.15"   Gusts: NA
Location:  35.5514°N, 90.0534°W
Report Text: KNQA 232150Z 30006KT 10SM SCT060 OVC180 16/08 A3015
Loading
Personal Weather Stations






























Interactive Weather Map
Tropical Storm Tracking
New forecast layout! Learn more

10-Day Weather Forecast

Advertisements
Track Severe Weather on mobile